Archival Weather

Chicago O'Hare International

Chicago, Illinois (KORD)

Report from: Tuesday, May 2, 2023 5:51 PM CDT
Current time: Sunday, February 25, 2024 4:11 PM CST

Current weather – Weather history – Daily summaries
Weather forecast

Temperature11.7°C (53.1°F)
Dew point-0.6°C (30.9°F)
Winds 16 kts (8.2 m/s, 18.4 mph) North-Northwest (330°)
Wind gusts 26 kts (13.4 m/s, 29.9 mph)
Peak wind 27 kts (13.9 m/s, 31.1 mph) Northwest (310°) at 22:23
Visibility10 mi. (16.1 km)
Clouds Ceiling: Overcast 5,500 ft. (1,676 m)
Altimeter29.65 in.Hg (1004 mB)
Relative humidity43 %
Density altitude5 ft. (2 m)
Sea-level pressure100.4 kPa (1004 mB, 29.65 in.Hg)
Remarks Automated weather observing station with precipitation discriminator
Flight conditions Visual Meteorological Conditions
Raw dataKORD 022251Z 33016G26KT 10SM OVC055 12/M01 A2965 RMK AO2 PK WND 31027/2223 SLP042 T01171006
An error has occurred. This application may no longer respond until reloaded. Reload 🗙